AEA5KU EDDS-EDDF
Flight info
| Callsign | AEA5KU |
|---|---|
| Flight time | 0h 29m |
| Altitude | 22000 |
| Route | ETASA4B/25 ETASA T163 SPESA SPESA4B |
| Aircraft | B789/H-SDE1E2E3FGHIJ2J3J4J5M1RWXY/LB1D1 |
Departure
| Time | 2026-05-05 16:59 |
|---|---|
| Airport | Stuttgart Airport (EDDS) |
Arrival
| Time | 2026-05-05 17:29 |
|---|---|
| Airport | Frankfurt Main Airport (EDDF) |
| Time | Latitude | Longitude | Altitude | Speed | Heading |
|---|---|---|---|---|---|
| 2026-05-05 16:21 | 48.69188 | 9.20686 | 1287 ft | 0 kts | 343° |
| 2026-05-05 16:44 | 48.69187 | 9.20686 | 1283 ft | 3 kts | 343° |
| 2026-05-05 16:45 | 48.69166 | 9.20698 | 1286 ft | 2 kts | 326° |
| 2026-05-05 16:45 | 48.69159 | 9.20712 | 1284 ft | 2 kts | 281° |
| 2026-05-05 16:45 | 48.69159 | 9.20729 | 1285 ft | 2 kts | 260° |
| 2026-05-05 16:45 | 48.69162 | 9.20746 | 1286 ft | 2 kts | 255° |
| 2026-05-05 16:46 | 48.69165 | 9.20762 | 1285 ft | 2 kts | 254° |
| 2026-05-05 16:46 | 48.69165 | 9.20764 | 1285 ft | 0 kts | 254° |
| 2026-05-05 16:50 | 48.69159 | 9.20734 | 1286 ft | 6 kts | 254° |
| 2026-05-05 16:50 | 48.69142 | 9.20639 | 1286 ft | 12 kts | 252° |
| 2026-05-05 16:51 | 48.69120 | 9.20534 | 1290 ft | 0 kts | 243° |
| 2026-05-05 16:51 | 48.69119 | 9.20533 | 1290 ft | 0 kts | 242° |
| 2026-05-05 16:51 | 48.69115 | 9.20522 | 1289 ft | 5 kts | 241° |
| 2026-05-05 16:52 | 48.69075 | 9.20486 | 1288 ft | 7 kts | 176° |
| 2026-05-05 16:52 | 48.69029 | 9.20523 | 1282 ft | 10 kts | 139° |
| 2026-05-05 16:52 | 48.68959 | 9.20645 | 1276 ft | 11 kts | 104° |
| 2026-05-05 16:52 | 48.68975 | 9.20758 | 1277 ft | 12 kts | 72° |
| 2026-05-05 16:53 | 48.69000 | 9.20891 | 1274 ft | 15 kts | 75° |
| 2026-05-05 16:53 | 48.69030 | 9.21059 | 1270 ft | 18 kts | 74° |
| 2026-05-05 16:53 | 48.69070 | 9.21255 | 1271 ft | 21 kts | 74° |
| 2026-05-05 16:53 | 48.69112 | 9.21480 | 1266 ft | 24 kts | 73° |
| 2026-05-05 16:54 | 48.69159 | 9.21731 | 1253 ft | 27 kts | 74° |
| 2026-05-05 16:54 | 48.69214 | 9.22019 | 1247 ft | 30 kts | 74° |
| 2026-05-05 16:54 | 48.69273 | 9.22326 | 1241 ft | 29 kts | 74° |
| 2026-05-05 16:54 | 48.69326 | 9.22616 | 1232 ft | 30 kts | 74° |
| 2026-05-05 16:55 | 48.69381 | 9.22899 | 1230 ft | 28 kts | 75° |
| 2026-05-05 16:55 | 48.69432 | 9.23164 | 1225 ft | 25 kts | 74° |
| 2026-05-05 16:55 | 48.69485 | 9.23441 | 1216 ft | 29 kts | 74° |
| 2026-05-05 16:55 | 48.69531 | 9.23700 | 1210 ft | 25 kts | 76° |
| 2026-05-05 16:56 | 48.69584 | 9.23964 | 1206 ft | 26 kts | 73° |
| 2026-05-05 16:56 | 48.69608 | 9.24155 | 1200 ft | 14 kts | 107° |
| 2026-05-05 16:56 | 48.69554 | 9.24287 | 1197 ft | 15 kts | 148° |
| 2026-05-05 16:56 | 48.69505 | 9.24314 | 1195 ft | 0 kts | 162° |
| 2026-05-05 16:57 | 48.69502 | 9.24315 | 1195 ft | 3 kts | 162° |
| 2026-05-05 16:57 | 48.69444 | 9.24338 | 1194 ft | 14 kts | 166° |
| 2026-05-05 16:57 | 48.69393 | 9.24309 | 1195 ft | 6 kts | 229° |
| 2026-05-05 16:57 | 48.69379 | 9.24258 | 1196 ft | 6 kts | 251° |
| 2026-05-05 16:58 | 48.69376 | 9.24242 | 1196 ft | 0 kts | 253° |
| 2026-05-05 16:58 | 48.69376 | 9.24240 | 1196 ft | 0 kts | 253° |
| 2026-05-05 16:59 | 48.69373 | 9.24226 | 1196 ft | 9 kts | 253° |
| 2026-05-05 16:59 | 48.69289 | 9.23788 | 1206 ft | 87 kts | 253° |
| 2026-05-05 16:59 | 48.69040 | 9.22458 | 1286 ft | 169 kts | 255° |
| 2026-05-05 16:59 | 48.68676 | 9.20589 | 2034 ft | 201 kts | 256° |
| 2026-05-05 17:00 | 48.68323 | 9.18442 | 3243 ft | 203 kts | 259° |
| 2026-05-05 17:00 | 48.67940 | 9.16417 | 4501 ft | 205 kts | 253° |
| 2026-05-05 17:00 | 48.67483 | 9.14239 | 4966 ft | 230 kts | 251° |
| 2026-05-05 17:00 | 48.67020 | 9.11876 | 4999 ft | 235 kts | 256° |
| 2026-05-05 17:01 | 48.67139 | 9.09416 | 4981 ft | 240 kts | 289° |
| 2026-05-05 17:01 | 48.68130 | 9.07412 | 4978 ft | 242 kts | 323° |
| 2026-05-05 17:01 | 48.69636 | 9.06317 | 4986 ft | 241 kts | 341° |
| 2026-05-05 17:01 | 48.71238 | 9.05543 | 4993 ft | 242 kts | 343° |
| 2026-05-05 17:02 | 48.72300 | 9.05029 | 4996 ft | 242 kts | 342° |
| 2026-05-05 17:02 | 48.73897 | 9.04210 | 5000 ft | 243 kts | 341° |
| 2026-05-05 17:02 | 48.75496 | 9.03371 | 4996 ft | 243 kts | 341° |
| 2026-05-05 17:02 | 48.77065 | 9.02555 | 5391 ft | 236 kts | 340° |
| 2026-05-05 17:03 | 48.78683 | 9.01728 | 5907 ft | 253 kts | 342° |
| 2026-05-05 17:03 | 48.80432 | 9.01626 | 6348 ft | 253 kts | 15° |
| 2026-05-05 17:03 | 48.82027 | 9.02733 | 6839 ft | 255 kts | 31° |
| 2026-05-05 17:03 | 48.83475 | 9.04049 | 7321 ft | 258 kts | 33° |
| 2026-05-05 17:04 | 48.85004 | 9.05477 | 7949 ft | 260 kts | 32° |
| 2026-05-05 17:04 | 48.86571 | 9.06917 | 8542 ft | 264 kts | 32° |
| 2026-05-05 17:04 | 48.88182 | 9.08268 | 9141 ft | 267 kts | 20° |
| 2026-05-05 17:04 | 48.90032 | 9.08584 | 9753 ft | 270 kts | 1° |
| 2026-05-05 17:05 | 48.91914 | 9.08877 | 10303 ft | 273 kts | 7° |
| 2026-05-05 17:05 | 48.93799 | 9.09239 | 10855 ft | 276 kts | 5° |
| 2026-05-05 17:05 | 48.95793 | 9.09526 | 11488 ft | 301 kts | 3° |
| 2026-05-05 17:05 | 48.97985 | 9.09808 | 12192 ft | 333 kts | 4° |
| 2026-05-05 17:06 | 49.00398 | 9.10147 | 13035 ft | 362 kts | 4° |
| 2026-05-05 17:06 | 49.02949 | 9.10524 | 13869 ft | 373 kts | 4° |
| 2026-05-05 17:06 | 49.05567 | 9.10905 | 14624 ft | 383 kts | 4° |
| 2026-05-05 17:06 | 49.08234 | 9.11283 | 15390 ft | 387 kts | 4° |
| 2026-05-05 17:07 | 49.10935 | 9.11667 | 16168 ft | 392 kts | 4° |
| 2026-05-05 17:07 | 49.13669 | 9.12061 | 16967 ft | 397 kts | 4° |
| 2026-05-05 17:07 | 49.16436 | 9.12460 | 17773 ft | 403 kts | 4° |
| 2026-05-05 17:07 | 49.19239 | 9.12862 | 18504 ft | 407 kts | 4° |
| 2026-05-05 17:08 | 49.22070 | 9.13267 | 19232 ft | 411 kts | 4° |
| 2026-05-05 17:08 | 49.24936 | 9.13672 | 19966 ft | 416 kts | 4° |
| 2026-05-05 17:08 | 49.27828 | 9.14082 | 20713 ft | 420 kts | 4° |
| 2026-05-05 17:08 | 49.30758 | 9.14500 | 21486 ft | 426 kts | 4° |
| 2026-05-05 17:09 | 49.33755 | 9.14929 | 21833 ft | 438 kts | 4° |
| 2026-05-05 17:09 | 49.36790 | 9.15361 | 21823 ft | 437 kts | 4° |
| 2026-05-05 17:09 | 49.39795 | 9.15792 | 21813 ft | 430 kts | 4° |
| 2026-05-05 17:09 | 49.42763 | 9.16217 | 21819 ft | 427 kts | 4° |
| 2026-05-05 17:10 | 49.45721 | 9.16640 | 21819 ft | 427 kts | 4° |
| 2026-05-05 17:10 | 49.48682 | 9.17064 | 21819 ft | 428 kts | 4° |
| 2026-05-05 17:10 | 49.51643 | 9.17490 | 21819 ft | 428 kts | 4° |
| 2026-05-05 17:10 | 49.54611 | 9.17917 | 21817 ft | 429 kts | 4° |
| 2026-05-05 17:11 | 49.57582 | 9.18345 | 21822 ft | 429 kts | 4° |
| 2026-05-05 17:11 | 49.60564 | 9.18773 | 21497 ft | 434 kts | 4° |
| 2026-05-05 17:11 | 49.63550 | 9.19548 | 20984 ft | 436 kts | 15° |
| 2026-05-05 17:11 | 49.66341 | 9.21370 | 20506 ft | 436 kts | 29° |
| 2026-05-05 17:12 | 49.68779 | 9.24132 | 20013 ft | 436 kts | 43° |
| 2026-05-05 17:12 | 49.70912 | 9.27423 | 19535 ft | 432 kts | 42° |
| 2026-05-05 17:12 | 49.73356 | 9.30081 | 19077 ft | 429 kts | 26° |
| 2026-05-05 17:12 | 49.76147 | 9.31606 | 18620 ft | 424 kts | 9° |
| 2026-05-05 17:13 | 49.79056 | 9.31944 | 18181 ft | 418 kts | 354° |
| 2026-05-05 17:13 | 49.81883 | 9.31125 | 17677 ft | 411 kts | 339° |
| 2026-05-05 17:13 | 49.84379 | 9.29317 | 17152 ft | 384 kts | 324° |
| 2026-05-05 17:13 | 49.86392 | 9.26809 | 16642 ft | 362 kts | 311° |
| 2026-05-05 17:14 | 49.87918 | 9.23803 | 16144 ft | 350 kts | 298° |
| 2026-05-05 17:14 | 49.88975 | 9.20369 | 15668 ft | 353 kts | 286° |
| 2026-05-05 17:14 | 49.89690 | 9.16736 | 15192 ft | 352 kts | 284° |
| 2026-05-05 17:14 | 49.90388 | 9.13096 | 14716 ft | 352 kts | 284° |
| 2026-05-05 17:15 | 49.91075 | 9.09456 | 14258 ft | 352 kts | 284° |
| 2026-05-05 17:15 | 49.91759 | 9.05838 | 13769 ft | 342 kts | 284° |
| 2026-05-05 17:15 | 49.92415 | 9.02392 | 13243 ft | 325 kts | 284° |
| 2026-05-05 17:15 | 49.92876 | 8.99960 | 12837 ft | 314 kts | 283° |
| 2026-05-05 17:16 | 49.93530 | 8.96729 | 12264 ft | 300 kts | 290° |
| 2026-05-05 17:16 | 49.94669 | 8.94028 | 11746 ft | 302 kts | 312° |
| 2026-05-05 17:16 | 49.96427 | 8.92138 | 11251 ft | 316 kts | 335° |
| 2026-05-05 17:16 | 49.98598 | 8.91443 | 10759 ft | 324 kts | 358° |
| 2026-05-05 17:17 | 50.00837 | 8.91841 | 10245 ft | 328 kts | 20° |
| 2026-05-05 17:17 | 50.02775 | 8.93686 | 9766 ft | 329 kts | 45° |
| 2026-05-05 17:17 | 50.04100 | 8.96542 | 9245 ft | 327 kts | 68° |
| 2026-05-05 17:17 | 50.04895 | 8.99745 | 8711 ft | 307 kts | 73° |
| 2026-05-05 17:18 | 50.05573 | 9.02795 | 8173 ft | 290 kts | 73° |
| 2026-05-05 17:18 | 50.06220 | 9.05648 | 7647 ft | 277 kts | 72° |
| 2026-05-05 17:18 | 50.06879 | 9.08438 | 7110 ft | 266 kts | 72° |
| 2026-05-05 17:18 | 50.07506 | 9.11098 | 6590 ft | 258 kts | 72° |
| 2026-05-05 17:19 | 50.08108 | 9.13683 | 6055 ft | 251 kts | 72° |
| 2026-05-05 17:19 | 50.08686 | 9.16174 | 5552 ft | 246 kts | 71° |
| 2026-05-05 17:19 | 50.09401 | 9.18577 | 5021 ft | 244 kts | 58° |
| 2026-05-05 17:19 | 50.10674 | 9.20356 | 4541 ft | 253 kts | 25° |
| 2026-05-05 17:20 | 50.12394 | 9.20884 | 4091 ft | 257 kts | 354° |
| 2026-05-05 17:20 | 50.14048 | 9.19967 | 3826 ft | 251 kts | 322° |
| 2026-05-05 17:20 | 50.15091 | 9.17936 | 3832 ft | 237 kts | 294° |
| 2026-05-05 17:20 | 50.15616 | 9.15540 | 3828 ft | 232 kts | 285° |
| 2026-05-05 17:21 | 50.16024 | 9.13136 | 3848 ft | 226 kts | 283° |
| 2026-05-05 17:21 | 50.16109 | 9.10690 | 3837 ft | 227 kts | 264° |
| 2026-05-05 17:21 | 50.15817 | 9.08271 | 3835 ft | 228 kts | 253° |
| 2026-05-05 17:22 | 50.14728 | 9.03600 | 3833 ft | 229 kts | 250° |
| 2026-05-05 17:22 | 50.14172 | 9.01274 | 3834 ft | 228 kts | 250° |
| 2026-05-05 17:22 | 50.13621 | 8.98969 | 3836 ft | 226 kts | 250° |
| 2026-05-05 17:22 | 50.13069 | 8.96655 | 3832 ft | 229 kts | 249° |
| 2026-05-05 17:23 | 50.12515 | 8.94336 | 3836 ft | 228 kts | 249° |
| 2026-05-05 17:23 | 50.11960 | 8.92014 | 3836 ft | 229 kts | 249° |
| 2026-05-05 17:23 | 50.11415 | 8.89729 | 3826 ft | 214 kts | 250° |
| 2026-05-05 17:23 | 50.10936 | 8.87698 | 3816 ft | 188 kts | 249° |
| 2026-05-05 17:24 | 50.10493 | 8.85845 | 3822 ft | 178 kts | 249° |
| 2026-05-05 17:24 | 50.10061 | 8.84037 | 3696 ft | 180 kts | 249° |
| 2026-05-05 17:24 | 50.09636 | 8.82259 | 3470 ft | 173 kts | 249° |
| 2026-05-05 17:24 | 50.09216 | 8.80494 | 3233 ft | 174 kts | 250° |
| 2026-05-05 17:25 | 50.08799 | 8.78726 | 3014 ft | 174 kts | 250° |
| 2026-05-05 17:25 | 50.08526 | 8.77584 | 2859 ft | 164 kts | 250° |
| 2026-05-05 17:25 | 50.08027 | 8.75511 | 2573 ft | 145 kts | 251° |
| 2026-05-05 17:25 | 50.07683 | 8.74068 | 2386 ft | 141 kts | 251° |
| 2026-05-05 17:26 | 50.07350 | 8.72643 | 2206 ft | 140 kts | 251° |
| 2026-05-05 17:26 | 50.07012 | 8.71230 | 2029 ft | 139 kts | 251° |
| 2026-05-05 17:26 | 50.06674 | 8.69818 | 1840 ft | 139 kts | 251° |
| 2026-05-05 17:26 | 50.06339 | 8.68409 | 1660 ft | 140 kts | 251° |
| 2026-05-05 17:27 | 50.05997 | 8.66983 | 1470 ft | 140 kts | 251° |
| 2026-05-05 17:27 | 50.05658 | 8.65565 | 1288 ft | 139 kts | 251° |
| 2026-05-05 17:27 | 50.05329 | 8.64160 | 1149 ft | 133 kts | 252° |
| 2026-05-05 17:27 | 50.05015 | 8.62788 | 1056 ft | 139 kts | 252° |
| 2026-05-05 17:28 | 50.04659 | 8.61404 | 843 ft | 139 kts | 250° |
| 2026-05-05 17:28 | 50.04328 | 8.60002 | 605 ft | 133 kts | 250° |
| 2026-05-05 17:28 | 50.04007 | 8.58641 | 407 ft | 133 kts | 249° |
| 2026-05-05 17:28 | 50.03713 | 8.57425 | 370 ft | 93 kts | 249° |
| 2026-05-05 17:29 | 50.03563 | 8.56800 | 367 ft | 26 kts | 249° |
| 2026-05-05 17:29 | 50.03507 | 8.56547 | 370 ft | 23 kts | 250° |
| 2026-05-05 17:29 | 50.03442 | 8.56284 | 368 ft | 27 kts | 252° |
| 2026-05-05 17:29 | 50.03440 | 8.56013 | 367 ft | 23 kts | 278° |
| 2026-05-05 17:30 | 50.03464 | 8.55798 | 372 ft | 12 kts | 281° |
| 2026-05-05 17:30 | 50.03465 | 8.55791 | 372 ft | 0 kts | 282° |
| 2026-05-05 17:30 | 50.03467 | 8.55779 | 372 ft | 3 kts | 284° |
| 2026-05-05 17:31 | 50.03478 | 8.55733 | 373 ft | 5 kts | 298° |
| 2026-05-05 17:31 | 50.03505 | 8.55707 | 372 ft | 5 kts | 340° |
| 2026-05-05 17:31 | 50.03536 | 8.55708 | 374 ft | 2 kts | 35° |
| 2026-05-05 17:31 | 50.03557 | 8.55751 | 368 ft | 9 kts | 62° |
| 2026-05-05 17:32 | 50.03594 | 8.55897 | 373 ft | 20 kts | 69° |
| 2026-05-05 17:32 | 50.03643 | 8.56100 | 373 ft | 19 kts | 69° |
| 2026-05-05 17:32 | 50.03688 | 8.56285 | 371 ft | 17 kts | 69° |
| 2026-05-05 17:32 | 50.03727 | 8.56453 | 371 ft | 16 kts | 70° |
| 2026-05-05 17:33 | 50.03762 | 8.56602 | 372 ft | 14 kts | 69° |
| 2026-05-05 17:33 | 50.03793 | 8.56734 | 373 ft | 12 kts | 70° |
| 2026-05-05 17:33 | 50.03821 | 8.56849 | 374 ft | 11 kts | 69° |
| 2026-05-05 17:33 | 50.03845 | 8.56947 | 370 ft | 9 kts | 69° |
| 2026-05-05 17:34 | 50.03878 | 8.57086 | 370 ft | 19 kts | 69° |
| 2026-05-05 17:34 | 50.03934 | 8.57323 | 374 ft | 28 kts | 68° |
| 2026-05-05 17:34 | 50.04012 | 8.57647 | 374 ft | 33 kts | 69° |
| 2026-05-05 17:34 | 50.04102 | 8.58025 | 376 ft | 41 kts | 70° |
| 2026-05-05 17:35 | 50.04182 | 8.58355 | 372 ft | 32 kts | 70° |
| 2026-05-05 17:35 | 50.04268 | 8.58719 | 374 ft | 40 kts | 69° |
| 2026-05-05 17:35 | 50.04335 | 8.58992 | 372 ft | 24 kts | 69° |
| 2026-05-05 17:35 | 50.04390 | 8.59224 | 373 ft | 22 kts | 70° |
| 2026-05-05 17:36 | 50.04439 | 8.59425 | 371 ft | 17 kts | 64° |
| 2026-05-05 17:36 | 50.04495 | 8.59469 | 374 ft | 6 kts | 5° |
| 2026-05-05 17:36 | 50.04542 | 8.59469 | 370 ft | 0 kts | 357° |
| 2026-05-05 17:38 | 50.04589 | 8.59465 | 369 ft | 13 kts | 358° |
| 2026-05-05 17:39 | 50.04711 | 8.59433 | 373 ft | 20 kts | 340° |
| 2026-05-05 17:39 | 50.04769 | 8.59401 | 373 ft | 0 kts | 341° |
| 2026-05-05 17:41 | 50.04775 | 8.59397 | 373 ft | 2 kts | 341° |
| 2026-05-05 17:42 | 50.04824 | 8.59370 | 374 ft | 12 kts | 340° |
| 2026-05-05 17:42 | 50.04904 | 8.59373 | 375 ft | 11 kts | 8° |
| 2026-05-05 17:42 | 50.04978 | 8.59348 | 373 ft | 13 kts | 338° |
| 2026-05-05 17:42 | 50.05064 | 8.59283 | 374 ft | 12 kts | 313° |
| 2026-05-05 17:43 | 50.05091 | 8.59235 | 375 ft | 3 kts | 324° |
| 2026-05-05 17:43 | 50.05110 | 8.59219 | 373 ft | 3 kts | 337° |
| 2026-05-05 17:43 | 50.05126 | 8.59211 | 369 ft | 3 kts | 341° |
| 2026-05-05 17:43 | 50.05147 | 8.59199 | 370 ft | 4 kts | 340° |
| 2026-05-05 17:44 | 50.05166 | 8.59189 | 374 ft | 2 kts | 340° |
| 2026-05-05 17:44 | 50.05171 | 8.59186 | 373 ft | 0 kts | 340° |